Time;durP1;ratioP1;P1;durP2;ratioP2;P2;SDS_P1;SDS_P2;PMS_P1;PMS_P2;Temp;Humidity;BMP_temperature;BMP_pressure;BME280_temperature;BME280_humidity;BME280_pressure;Samples;Min_cycle;Max_cycle;Signal;HPM_P1;HPM_P2
2023/05/22 00:00:54;;;;;;;10.02;7.30;;;16.60;99.90;;;;;;4975175;28;20015;-75
2023/05/22 00:03:23;;;;;;;10.38;7.68;;;16.50;99.90;;;;;;4973908;28;20023;-75
2023/05/22 00:05:49;;;;;;;12.85;7.90;;;16.50;99.90;;;;;;4974705;28;20019;-75
2023/05/22 00:08:15;;;;;;;10.18;7.07;;;16.60;99.90;;;;;;4973496;28;20078;-75
2023/05/22 00:10:44;;;;;;;12.13;7.78;;;16.60;99.90;;;;;;4974536;28;20031;-75
2023/05/22 00:13:09;;;;;;;10.00;6.85;;;16.50;99.90;;;;;;4972165;28;20019;-75
2023/05/22 00:15:38;;;;;;;12.45;7.28;;;16.50;99.90;;;;;;4955190;29;20063;-75
2023/05/22 00:18:07;;;;;;;11.45;7.78;;;16.50;99.90;;;;;;4956745;28;20150;-75
2023/05/22 00:20:37;;;;;;;10.25;7.75;;;16.40;99.90;;;;;;4956520;28;20102;-75
2023/05/22 00:23:09;;;;;;;12.25;7.07;;;16.40;99.90;;;;;;4956935;28;20057;-75
2023/05/22 00:25:49;;;;;;;10.82;7.80;;;16.40;99.90;;;;;;4956528;28;20390;-76
2023/05/22 00:28:21;;;;;;;10.60;7.28;;;16.40;99.90;;;;;;4937251;29;20024;-76
2023/05/22 00:30:56;;;;;;;11.60;7.95;;;16.30;99.90;;;;;;4937655;29;20027;-76
2023/05/22 00:33:21;;;;;;;17.95;8.13;;;16.30;99.90;;;;;;4937196;29;20040;-75
2023/05/22 00:35:47;;;;;;;12.60;7.85;;;16.20;99.90;;;;;;4970817;28;20041;-75
2023/05/22 00:38:29;;;;;;;17.88;8.55;;;16.20;99.90;;;;;;4975906;28;20138;-75
2023/05/22 00:41:02;;;;;;;10.80;8.30;;;16.10;99.90;;;;;;4975533;28;20106;-76
2023/05/22 00:43:31;;;;;;;10.57;7.43;;;16.10;99.90;;;;;;4973415;28;20627;-76
2023/05/22 00:45:59;;;;;;;11.63;8.38;;;16.10;99.90;;;;;;4975344;28;20035;-76
2023/05/22 00:48:28;;;;;;;12.90;7.95;;;16.00;99.90;;;;;;4975390;28;20436;-75
2023/05/22 00:50:55;;;;;;;12.25;7.88;;;16.00;99.90;;;;;;4975791;28;20102;-76
2023/05/22 00:53:23;;;;;;;10.48;7.38;;;16.00;99.90;;;;;;4975346;28;20038;-76
2023/05/22 00:55:53;;;;;;;10.10;7.93;;;15.90;99.90;;;;;;4966564;28;20078;-75
2023/05/22 00:58:25;;;;;;;8.82;6.95;;;15.90;99.90;;;;;;4955414;28;20106;-76
2023/05/22 01:00:51;;;;;;;11.05;8.30;;;15.90;99.90;;;;;;4955117;28;20030;-75
2023/05/22 01:03:24;;;;;;;12.98;8.52;;;15.80;99.90;;;;;;4955219;28;20020;-74
2023/05/22 01:06:08;;;;;;;10.90;7.65;;;15.80;99.90;;;;;;4954874;29;20065;-76
2023/05/22 01:08:37;;;;;;;12.30;8.10;;;15.90;99.90;;;;;;4954918;28;20384;-76
2023/05/22 01:11:23;;;;;;;11.30;7.90;;;15.90;99.90;;;;;;4954713;28;20571;-76
2023/05/22 01:14:09;;;;;;;11.85;8.02;;;15.80;99.90;;;;;;4952493;29;20055;-76
2023/05/22 01:16:58;;;;;;;10.20;6.93;;;15.80;99.90;;;;;;4954396;28;20030;-76
2023/05/22 01:20:09;;;;;;;11.25;8.27;;;15.80;99.90;;;;;;4954553;28;20032;-75
2023/05/22 01:23:02;;;;;;;14.55;8.00;;;15.80;99.90;;;;;;4954675;29;20469;-75
2023/05/22 01:26:04;;;;;;;10.63;7.70;;;15.80;99.90;;;;;;4953520;29;20031;-75
2023/05/22 01:28:57;;;;;;;13.20;7.82;;;15.70;99.90;;;;;;4954624;29;20030;-76
2023/05/22 01:31:30;;;;;;;15.43;9.05;;;15.70;99.90;;;;;;4953084;29;20483;-75
2023/05/22 01:33:58;;;;;;;13.38;7.70;;;15.70;99.90;;;;;;4953953;28;20035;-75
2023/05/22 01:36:30;;;;;;;16.83;8.38;;;15.60;99.90;;;;;;4966342;28;20045;-76
2023/05/22 01:39:00;;;;;;;13.48;8.68;;;15.60;99.90;;;;;;4973515;28;20034;-75
2023/05/22 01:41:27;;;;;;;12.98;8.10;;;15.50;99.90;;;;;;4973575;28;20034;-75
2023/05/22 01:43:53;;;;;;;11.65;7.70;;;15.50;99.90;;;;;;4971632;28;20304;-75
2023/05/22 01:46:18;;;;;;;14.05;8.60;;;15.40;99.90;;;;;;4954192;28;20035;-75
2023/05/22 01:48:50;;;;;;;12.35;8.70;;;15.40;99.90;;;;;;4952140;29;20030;-75
2023/05/22 01:51:22;;;;;;;10.80;8.50;;;15.40;99.90;;;;;;4953469;28;20027;-75
2023/05/22 01:54:30;;;;;;;12.30;8.40;;;15.30;99.90;;;;;;4952508;28;20113;-75
2023/05/22 01:57:02;;;;;;;12.77;8.15;;;15.30;99.90;;;;;;4953902;28;20055;-76
2023/05/22 01:59:30;;;;;;;12.55;9.05;;;15.30;99.90;;;;;;4953531;28;20062;-75
2023/05/22 02:02:05;;;;;;;15.45;9.60;;;15.20;99.90;;;;;;4953873;28;20019;-76
2023/05/22 02:04:34;;;;;;;16.50;9.27;;;15.10;99.90;;;;;;4953723;28;20031;-75
2023/05/22 02:07:01;;;;;;;14.10;9.02;;;15.10;99.90;;;;;;4953558;28;20066;-76
2023/05/22 02:09:30;;;;;;;13.27;9.23;;;15.10;99.90;;;;;;4954121;28;20032;-75
2023/05/22 02:11:58;;;;;;;12.35;8.88;;;15.00;99.90;;;;;;4953530;29;20114;-75
2023/05/22 02:14:28;;;;;;;12.38;8.88;;;15.00;99.90;;;;;;4953898;28;20125;-75
2023/05/22 02:17:03;;;;;;;13.07;9.18;;;15.00;99.90;;;;;;4952241;29;20065;-75
2023/05/22 02:19:33;;;;;;;14.50;9.07;;;15.00;99.90;;;;;;4953719;28;20019;-75
2023/05/22 02:22:05;;;;;;;13.13;9.23;;;15.00;99.90;;;;;;4954433;28;20474;-75
2023/05/22 02:24:35;;;;;;;17.10;9.30;;;15.00;99.90;;;;;;4954093;28;20019;-74
2023/05/22 02:27:04;;;;;;;14.05;9.35;;;14.90;99.90;;;;;;4954218;28;20015;-74
2023/05/22 02:29:32;;;;;;;15.80;9.20;;;15.00;99.90;;;;;;4954200;28;20102;-74
2023/05/22 02:31:58;;;;;;;14.18;10.23;;;14.90;99.90;;;;;;4953812;28;20028;-74
2023/05/22 02:34:23;;;;;;;16.25;9.20;;;14.90;99.90;;;;;;4954226;28;20074;-74
2023/05/22 02:36:49;;;;;;;12.82;9.20;;;15.00;99.90;;;;;;4952597;29;20036;-74
2023/05/22 02:39:18;;;;;;;12.20;8.50;;;14.90;99.90;;;;;;4954339;28;20110;-74
2023/05/22 02:41:44;;;;;;;12.90;9.05;;;14.90;99.90;;;;;;4954096;28;20031;-75
2023/05/22 02:44:16;;;;;;;13.85;10.07;;;15.00;99.90;;;;;;4953975;28;20043;-75
2023/05/22 02:46:48;;;;;;;13.98;9.05;;;15.00;99.90;;;;;;4954018;28;20031;-75
2023/05/22 02:49:13;;;;;;;16.98;10.05;;;15.10;99.90;;;;;;4953629;28;20568;-75
2023/05/22 02:51:46;;;;;;;18.02;9.60;;;15.10;99.90;;;;;;4953778;28;20109;-75
2023/05/22 02:54:15;;;;;;;13.07;8.85;;;15.10;99.90;;;;;;4953955;29;20034;-75
2023/05/22 02:56:41;;;;;;;13.38;8.60;;;15.20;99.90;;;;;;4953682;28;20503;-75
2023/05/22 02:59:13;;;;;;;13.20;8.95;;;15.20;99.90;;;;;;4953349;28;20024;-75
2023/05/22 03:01:39;;;;;;;12.48;8.30;;;15.20;99.90;;;;;;4953798;28;20031;-75
2023/05/22 03:04:07;;;;;;;15.32;8.85;;;15.20;99.90;;;;;;4952170;29;20032;-76
2023/05/22 03:06:40;;;;;;;14.80;8.63;;;15.30;99.90;;;;;;4956655;28;20035;-77
2023/05/22 03:09:09;;;;;;;13.10;8.85;;;15.30;99.90;;;;;;4958578;28;20066;-77
2023/05/22 03:11:34;;;;;;;12.95;8.48;;;15.30;99.90;;;;;;4959344;28;20019;-76
2023/05/22 03:14:03;;;;;;;12.07;9.25;;;15.30;99.90;;;;;;4957043;28;20030;-74
2023/05/22 03:16:29;;;;;;;12.20;9.38;;;15.30;99.90;;;;;;4955810;29;20137;-75
2023/05/22 03:19:16;;;;;;;15.13;9.48;;;15.30;99.90;;;;;;4957097;29;20031;-75
2023/05/22 03:21:44;;;;;;;14.68;9.45;;;15.30;99.90;;;;;;4955683;29;20082;-75
2023/05/22 03:24:11;;;;;;;13.55;9.50;;;15.30;99.90;;;;;;4956780;28;20129;-75
2023/05/22 03:26:38;;;;;;;12.60;8.93;;;15.30;99.90;;;;;;4957145;28;20015;-75
2023/05/22 03:29:04;;;;;;;14.27;9.55;;;15.30;99.90;;;;;;4956158;28;20023;-74
2023/05/22 03:31:31;;;;;;;15.00;9.05;;;15.20;99.90;;;;;;4956527;28;20019;-74
2023/05/22 03:34:00;;;;;;;12.77;9.95;;;15.20;99.90;;;;;;4956374;28;20055;-76
2023/05/22 03:36:26;;;;;;;12.20;8.75;;;15.20;99.90;;;;;;4956850;28;20031;-76
2023/05/22 03:38:51;;;;;;;13.73;9.15;;;15.30;99.90;;;;;;4956769;28;20031;-76
2023/05/22 03:41:21;;;;;;;14.38;9.25;;;15.20;99.90;;;;;;4956701;28;20039;-75
2023/05/22 03:43:46;;;;;;;15.23;9.88;;;15.30;99.90;;;;;;4955423;29;20101;-75
2023/05/22 03:46:21;;;;;;;12.98;9.50;;;15.30;99.90;;;;;;4956542;28;20035;-75
2023/05/22 03:48:47;;;;;;;12.73;9.30;;;15.30;99.90;;;;;;4955194;29;20051;-76
2023/05/22 03:51:15;;;;;;;15.52;9.68;;;15.30;99.90;;;;;;4956596;29;20026;-75
2023/05/22 03:53:43;;;;;;;14.88;10.07;;;15.30;99.90;;;;;;4956910;28;20114;-75
2023/05/22 03:56:09;;;;;;;15.02;9.85;;;15.30;99.90;;;;;;4956846;28;20252;-76
2023/05/22 03:58:38;;;;;;;13.73;9.45;;;15.30;99.90;;;;;;4955591;29;20031;-76
2023/05/22 04:01:04;;;;;;;13.52;9.43;;;15.30;99.90;;;;;;4956236;29;20015;-75
2023/05/22 04:03:33;;;;;;;15.45;9.43;;;15.30;99.90;;;;;;4955213;28;20030;-76
2023/05/22 04:05:58;;;;;;;16.42;10.15;;;15.30;99.90;;;;;;4959734;28;20402;-75
2023/05/22 04:08:24;;;;;;;16.52;9.73;;;15.30;99.90;;;;;;4957447;28;20030;-76
2023/05/22 04:10:49;;;;;;;14.55;9.73;;;15.30;99.90;;;;;;4955766;28;20464;-75
2023/05/22 04:13:16;;;;;;;15.60;10.13;;;15.40;99.90;;;;;;4956357;29;20023;-76
2023/05/22 04:15:45;;;;;;;14.30;9.75;;;15.40;99.90;;;;;;4956224;28;20034;-75
2023/05/22 04:18:11;;;;;;;14.75;9.85;;;15.40;99.90;;;;;;4954737;29;20031;-75
2023/05/22 04:20:37;;;;;;;17.40;10.05;;;15.40;99.90;;;;;;4953893;28;20028;-75
2023/05/22 04:23:03;;;;;;;16.13;10.25;;;15.40;99.90;;;;;;4956633;28;20435;-75
2023/05/22 04:25:33;;;;;;;12.75;10.23;;;15.50;99.90;;;;;;4956002;28;20035;-76
2023/05/22 04:28:02;;;;;;;14.43;10.10;;;15.50;99.90;;;;;;4955792;29;20020;-75
2023/05/22 04:30:27;;;;;;;13.23;9.95;;;15.50;99.90;;;;;;4954325;28;20076;-76
2023/05/22 04:32:59;;;;;;;15.48;9.98;;;15.50;99.90;;;;;;4956031;29;20487;-75
2023/05/22 04:35:28;;;;;;;15.40;9.63;;;15.50;99.90;;;;;;4955966;28;20031;-76
2023/05/22 04:38:02;;;;;;;15.43;9.57;;;15.60;99.90;;;;;;4955772;29;20038;-76
2023/05/22 04:40:29;;;;;;;15.02;9.57;;;15.60;99.90;;;;;;4955587;29;20031;-76
2023/05/22 04:42:58;;;;;;;13.77;9.55;;;15.60;99.90;;;;;;4954693;28;20110;-76
2023/05/22 04:45:25;;;;;;;13.82;9.57;;;15.70;99.90;;;;;;4955527;28;20020;-76
2023/05/22 04:47:54;;;;;;;14.07;9.18;;;15.70;99.90;;;;;;4955476;28;20039;-76
2023/05/22 04:50:23;;;;;;;13.95;10.25;;;15.80;99.90;;;;;;4955793;29;20063;-76
2023/05/22 04:53:04;;;;;;;16.23;10.75;;;15.90;99.90;;;;;;4955557;28;20034;-76
2023/05/22 04:55:32;;;;;;;14.48;10.23;;;15.90;99.90;;;;;;4954060;29;20027;-76
2023/05/22 04:58:04;;;;;;;15.88;10.48;;;16.00;99.90;;;;;;4955429;28;20101;-76
2023/05/22 05:00:36;;;;;;;13.40;9.48;;;16.10;99.90;;;;;;4955377;28;20142;-76
2023/05/22 05:03:02;;;;;;;14.40;10.93;;;16.10;99.90;;;;;;4955263;29;20671;-76
2023/05/22 05:05:34;;;;;;;14.40;10.57;;;16.20;99.90;;;;;;4955192;29;20027;-75
2023/05/22 05:08:03;;;;;;;15.80;10.25;;;16.20;99.90;;;;;;4955983;29;20038;-76
2023/05/22 05:10:31;;;;;;;17.30;10.63;;;16.20;99.90;;;;;;4954331;29;20115;-76
2023/05/22 05:13:00;;;;;;;13.80;10.40;;;16.30;99.90;;;;;;4953569;29;20027;-76
2023/05/22 05:15:34;;;;;;;14.27;10.55;;;16.30;99.90;;;;;;4955830;29;20042;-76
2023/05/22 05:18:03;;;;;;;14.82;10.63;;;16.30;99.90;;;;;;4954844;28;20027;-76
2023/05/22 05:20:31;;;;;;;17.08;10.05;;;16.40;99.90;;;;;;4954742;29;20105;-76
2023/05/22 05:22:57;;;;;;;15.20;11.25;;;16.30;99.90;;;;;;4955124;29;20127;-76
2023/05/22 05:25:23;;;;;;;15.45;10.63;;;16.40;99.90;;;;;;4953889;29;20507;-75
2023/05/22 05:27:48;;;;;;;15.52;9.80;;;16.40;99.90;;;;;;4954945;28;20023;-76
2023/05/22 05:30:14;;;;;;;15.55;11.32;;;16.40;99.90;;;;;;4953766;29;20438;-76
2023/05/22 05:32:42;;;;;;;19.00;12.18;;;16.40;99.90;;;;;;4953990;28;20027;-76
2023/05/22 05:35:08;;;;;;;17.63;11.00;;;16.40;99.90;;;;;;4954394;28;20058;-76
2023/05/22 05:37:34;;;;;;;16.80;11.05;;;16.40;99.90;;;;;;4954570;28;20482;-76
2023/05/22 05:40:00;;;;;;;16.42;11.18;;;16.40;99.90;;;;;;4955059;28;20030;-76
2023/05/22 05:42:25;;;;;;;14.10;11.02;;;16.50;99.90;;;;;;4954482;29;20037;-76
2023/05/22 05:44:57;;;;;;;15.77;10.77;;;16.50;99.90;;;;;;4954678;29;20030;-76
2023/05/22 05:47:22;;;;;;;17.20;10.93;;;16.60;99.90;;;;;;4954615;28;20038;-76
2023/05/22 05:49:51;;;;;;;17.88;10.95;;;16.60;99.90;;;;;;4954306;29;20023;-76
2023/05/22 05:52:16;;;;;;;14.07;10.10;;;16.70;99.90;;;;;;4953350;28;20031;-76
2023/05/22 05:54:46;;;;;;;17.17;10.82;;;16.80;99.90;;;;;;4954181;29;20034;-76
2023/05/22 05:57:13;;;;;;;17.35;10.68;;;16.80;99.90;;;;;;4954468;28;20433;-76
2023/05/22 05:59:39;;;;;;;16.27;11.43;;;16.90;99.90;;;;;;4953294;29;20030;-76
2023/05/22 06:02:05;;;;;;;18.23;11.02;;;16.90;99.90;;;;;;4954644;28;20662;-76
2023/05/22 06:04:30;;;;;;;18.63;11.35;;;17.00;99.90;;;;;;4953510;29;20035;-77
2023/05/22 06:07:00;;;;;;;18.35;12.20;;;17.10;99.90;;;;;;4953691;29;20494;-77
2023/05/22 06:09:26;;;;;;;19.45;11.88;;;17.20;99.90;;;;;;4954642;28;20027;-75
2023/05/22 06:11:51;;;;;;;16.67;10.43;;;17.30;99.90;;;;;;4947695;28;20210;-70
2023/05/22 06:14:17;;;;;;;17.70;10.65;;;17.30;99.90;;;;;;4946995;28;20505;-69
2023/05/22 06:16:44;;;;;;;18.00;10.50;;;17.40;99.90;;;;;;4949509;28;20030;-68
2023/05/22 06:19:10;;;;;;;14.93;10.88;;;17.50;99.90;;;;;;4951026;28;20023;-69
2023/05/22 06:21:35;;;;;;;18.13;11.75;;;17.50;99.90;;;;;;4949029;28;20037;-69
2023/05/22 06:24:04;;;;;;;15.95;12.07;;;17.60;99.90;;;;;;4946795;28;20481;-69
2023/05/22 06:26:33;;;;;;;15.60;11.57;;;17.70;99.90;;;;;;4952500;28;20043;-77
2023/05/22 06:29:02;;;;;;;16.40;11.20;;;17.80;99.90;;;;;;4954099;28;20090;-76
2023/05/22 06:31:28;;;;;;;18.83;12.05;;;18.00;99.90;;;;;;4947844;28;20024;-73
2023/05/22 06:33:53;;;;;;;17.92;11.75;;;18.10;99.90;;;;;;4978046;28;20086;-72
2023/05/22 06:36:19;;;;;;;17.23;12.30;;;18.20;99.90;;;;;;4948736;28;20537;-72
2023/05/22 06:38:48;;;;;;;17.70;11.98;;;18.30;99.90;;;;;;4949329;28;20047;-73
2023/05/22 06:41:14;;;;;;;20.25;13.00;;;18.30;99.90;;;;;;4946986;28;20035;-72
2023/05/22 06:43:46;;;;;;;21.13;12.45;;;18.40;99.90;;;;;;4942907;28;20032;-76
2023/05/22 06:46:11;;;;;;;19.48;12.75;;;18.40;99.90;;;;;;4955740;28;20375;-76
2023/05/22 06:48:37;;;;;;;18.10;12.25;;;18.40;99.90;;;;;;4954634;28;20031;-77
2023/05/22 06:51:03;;;;;;;19.50;12.38;;;18.40;99.90;;;;;;4953385;28;20027;-76
2023/05/22 06:53:32;;;;;;;17.15;12.82;;;18.40;99.90;;;;;;4953919;28;20363;-76
2023/05/22 06:56:01;;;;;;;20.08;13.75;;;18.40;99.90;;;;;;4952602;28;20073;-75
2023/05/22 06:58:29;;;;;;;17.77;12.35;;;18.50;99.90;;;;;;4953660;29;20023;-76
2023/05/22 07:00:55;;;;;;;14.95;11.60;;;18.50;99.90;;;;;;4953980;28;20027;-76
2023/05/22 07:03:22;;;;;;;19.27;12.40;;;18.60;99.90;;;;;;4953980;29;20030;-75
2023/05/22 07:05:47;;;;;;;19.75;12.75;;;18.60;99.90;;;;;;4952865;29;20618;-75
2023/05/22 07:08:13;;;;;;;23.48;13.20;;;18.70;99.90;;;;;;4954664;28;20091;-76
2023/05/22 07:10:38;;;;;;;16.83;11.98;;;18.70;99.90;;;;;;4953026;29;20027;-74
2023/05/22 07:13:04;;;;;;;17.35;12.18;;;18.80;99.90;;;;;;4952449;29;20027;-74
2023/05/22 07:15:35;;;;;;;16.08;12.15;;;18.80;99.90;;;;;;4952954;28;20515;-74
2023/05/22 07:18:02;;;;;;;14.75;11.55;;;18.90;99.90;;;;;;4952248;29;20428;-74
2023/05/22 07:20:27;;;;;;;19.92;12.27;;;18.90;99.90;;;;;;4953476;28;20506;-74
2023/05/22 07:22:53;;;;;;;17.25;11.60;;;19.00;99.90;;;;;;4953800;28;20033;-75
2023/05/22 07:25:21;;;;;;;20.63;13.32;;;19.00;99.90;;;;;;4954155;28;20070;-75
2023/05/22 07:27:57;;;;;;;18.10;12.45;;;19.10;99.90;;;;;;4953254;28;20035;-75
2023/05/22 07:30:23;;;;;;;15.98;10.52;;;19.20;99.90;;;;;;4952518;29;20023;-75
2023/05/22 07:32:51;;;;;;;14.93;11.30;;;19.20;99.90;;;;;;4952668;29;20362;-75
2023/05/22 07:35:17;;;;;;;16.15;11.48;;;19.30;99.90;;;;;;4951920;29;20102;-75
2023/05/22 07:37:43;;;;;;;16.02;10.95;;;19.30;99.90;;;;;;4953505;28;20063;-75
2023/05/22 07:40:09;;;;;;;17.95;11.43;;;19.40;99.90;;;;;;4952669;29;20505;-75
2023/05/22 07:42:36;;;;;;;16.10;11.95;;;19.40;99.90;;;;;;4952578;29;20573;-76
2023/05/22 07:45:02;;;;;;;14.15;12.20;;;19.40;99.90;;;;;;4953265;28;20027;-75
2023/05/22 07:47:28;;;;;;;16.00;13.00;;;19.50;99.90;;;;;;4952281;28;20103;-75
2023/05/22 07:50:03;;;;;;;20.08;12.48;;;19.60;99.90;;;;;;4952856;28;20024;-75
2023/05/22 07:52:31;;;;;;;17.30;12.98;;;19.60;99.90;;;;;;4954670;28;20645;-75
2023/05/22 07:54:57;;;;;;;21.13;13.32;;;19.60;99.90;;;;;;4955795;28;20032;-75
2023/05/22 07:57:23;;;;;;;19.02;12.65;;;19.60;99.90;;;;;;4955435;29;20390;-75
2023/05/22 07:59:49;;;;;;;16.48;12.48;;;19.70;99.90;;;;;;4957018;28;20027;-75
2023/05/22 08:02:17;;;;;;;17.77;12.73;;;19.70;99.90;;;;;;4957267;28;20026;-75
2023/05/22 08:04:43;;;;;;;14.00;11.18;;;19.70;99.90;;;;;;4956757;28;20023;-75
2023/05/22 08:07:09;;;;;;;17.88;11.73;;;19.70;99.90;;;;;;4956870;28;20023;-75
2023/05/22 08:09:34;;;;;;;17.33;11.98;;;19.70;99.90;;;;;;4954727;29;20023;-75
2023/05/22 08:12:00;;;;;;;17.05;12.18;;;19.80;99.90;;;;;;4955074;29;20474;-75
2023/05/22 08:14:26;;;;;;;15.30;11.82;;;19.80;99.90;;;;;;4956593;28;20347;-75
2023/05/22 08:16:51;;;;;;;17.98;12.55;;;19.90;99.90;;;;;;4955402;29;20031;-75
2023/05/22 08:19:17;;;;;;;17.95;12.82;;;20.00;99.90;;;;;;4956463;29;20050;-75
2023/05/22 08:21:43;;;;;;;17.48;12.38;;;20.10;99.90;;;;;;4956470;29;20034;-75
2023/05/22 08:24:08;;;;;;;17.60;12.77;;;20.20;99.90;;;;;;4956171;29;20063;-76
2023/05/22 08:26:41;;;;;;;18.80;13.57;;;20.30;99.90;;;;;;4956503;28;20360;-75
2023/05/22 08:29:10;;;;;;;18.50;13.20;;;20.40;99.90;;;;;;4955191;29;20075;-75
2023/05/22 08:31:36;;;;;;;21.08;13.43;;;20.50;99.90;;;;;;4956480;28;20110;-75
2023/05/22 08:34:03;;;;;;;16.25;12.52;;;20.50;99.90;;;;;;4955112;28;20525;-76
2023/05/22 08:36:35;;;;;;;17.52;11.68;;;20.60;99.90;;;;;;4956689;28;20034;-75
2023/05/22 08:39:00;;;;;;;16.42;12.02;;;20.70;99.90;;;;;;4956539;29;20055;-75
2023/05/22 08:41:29;;;;;;;16.90;12.57;;;20.90;99.90;;;;;;4956637;29;20031;-75
2023/05/22 08:43:55;;;;;;;17.05;13.02;;;20.90;99.90;;;;;;4955486;29;20023;-75
2023/05/22 08:46:25;;;;;;;17.55;12.65;;;20.90;99.90;;;;;;4955728;28;20087;-75
2023/05/22 08:48:57;;;;;;;16.20;11.98;;;21.00;99.90;;;;;;4941883;28;20035;-75
2023/05/22 08:51:27;;;;;;;16.48;12.93;;;21.00;99.90;;;;;;4936831;29;20028;-75
2023/05/22 08:53:55;;;;;;;16.58;13.18;;;21.10;99.90;;;;;;4935694;29;20062;-76
2023/05/22 08:56:21;;;;;;;19.45;13.43;;;21.10;99.90;;;;;;4937904;29;20056;-76
2023/05/22 08:58:48;;;;;;;18.83;13.05;;;21.20;99.90;;;;;;4955289;28;20074;-76
2023/05/22 09:01:15;;;;;;;13.50;10.82;;;21.20;99.90;;;;;;4956460;28;20486;-75
2023/05/22 09:03:41;;;;;;;16.17;11.00;;;21.30;99.90;;;;;;4951093;28;20031;-75
2023/05/22 09:06:09;;;;;;;18.77;12.68;;;21.30;99.90;;;;;;4951810;28;20024;-76
2023/05/22 09:08:38;;;;;;;17.75;12.82;;;21.40;99.90;;;;;;4948057;28;20023;-76
2023/05/22 09:11:03;;;;;;;18.58;12.35;;;21.50;99.90;;;;;;4952461;28;20562;-75
2023/05/22 09:13:30;;;;;;;16.73;11.75;;;21.50;99.90;;;;;;4951231;28;20114;-75
2023/05/22 09:16:11;;;;;;;16.15;11.65;;;21.60;99.90;;;;;;4950815;28;20064;-76
2023/05/22 09:18:38;;;;;;;19.85;12.75;;;21.70;99.90;;;;;;4947204;28;20542;-76
2023/05/22 09:21:05;;;;;;;18.15;13.93;;;21.80;99.90;;;;;;4949805;28;20024;-75
2023/05/22 09:23:31;;;;;;;17.25;12.75;;;21.80;99.90;;;;;;4954214;28;20023;-75
2023/05/22 09:26:06;;;;;;;17.27;13.52;;;21.80;99.90;;;;;;4950572;28;20043;-75
2023/05/22 09:28:35;;;;;;;20.02;14.32;;;21.80;99.90;;;;;;4947734;28;20110;-75
2023/05/22 09:31:09;;;;;;;18.35;13.07;;;21.80;99.90;;;;;;4951042;28;20442;-75
2023/05/22 09:33:36;;;;;;;17.85;13.20;;;21.90;99.90;;;;;;4953257;28;20024;-76
2023/05/22 09:36:08;;;;;;;19.73;13.82;;;21.90;99.90;;;;;;4948961;28;20032;-75
2023/05/22 09:38:34;;;;;;;15.07;11.95;;;22.00;99.90;;;;;;4947201;28;20054;-75
2023/05/22 09:41:04;;;;;;;15.60;12.35;;;22.00;99.90;;;;;;4983087;28;20031;-76
2023/05/22 09:43:32;;;;;;;23.17;13.38;;;22.00;99.90;;;;;;4948546;28;20046;-77
2023/05/22 09:46:04;;;;;;;17.20;12.65;;;22.10;99.90;;;;;;4946358;28;20103;-77
2023/05/22 09:48:36;;;;;;;16.38;13.10;;;22.20;99.90;;;;;;4953194;28;20453;-78
2023/05/22 09:51:03;;;;;;;15.45;11.95;;;22.20;99.90;;;;;;4952381;28;20469;-76
2023/05/22 09:53:31;;;;;;;18.50;11.85;;;22.30;99.90;;;;;;4951141;28;21276;-76
2023/05/22 09:55:59;;;;;;;14.88;11.57;;;22.30;99.90;;;;;;4951362;28;20045;-77
2023/05/22 09:58:29;;;;;;;14.35;10.40;;;22.40;99.90;;;;;;4948423;28;20054;-77
2023/05/22 10:00:56;;;;;;;14.80;10.27;;;22.50;99.90;;;;;;4945171;28;20036;-77
2023/05/22 10:03:23;;;;;;;17.42;12.20;;;22.50;99.90;;;;;;4947166;28;20011;-77
2023/05/22 10:05:57;;;;;;;16.65;11.45;;;22.50;99.90;;;;;;4944188;28;20046;-77
2023/05/22 10:08:30;;;;;;;;;;;22.60;99.90;;;;;;4979439;28;20125;-76
2023/05/22 10:10:57;;;;;;;12.80;10.17;;;22.60;99.90;;;;;;4977513;28;20312;-76
2023/05/22 10:13:27;;;;;;;12.70;10.48;;;22.70;99.90;;;;;;4944741;28;20296;-76
2023/05/22 10:15:53;;;;;;;18.27;12.35;;;22.80;99.90;;;;;;4951907;28;20402;-75
2023/05/22 10:18:19;;;;;;;16.58;11.55;;;22.80;99.90;;;;;;4960154;28;20031;-76
2023/05/22 10:20:45;;;;;;;13.50;10.75;;;22.90;99.90;;;;;;4942151;28;20023;-75
2023/05/22 10:23:12;;;;;;;15.05;10.35;;;23.00;99.70;;;;;;4950117;28;20786;-76
2023/05/22 10:25:38;;;;;;;13.98;11.23;;;23.00;99.90;;;;;;4946589;28;20026;-76
2023/05/22 10:28:05;;;;;;;15.05;10.93;;;23.00;99.90;;;;;;4947334;28;20383;-76
2023/05/22 10:30:39;;;;;;;14.95;11.18;;;23.10;99.90;;;;;;4946842;28;20039;-76
2023/05/22 10:33:12;;;;;;;15.57;11.10;;;23.00;99.70;;;;;;4950752;28;20032;-76
2023/05/22 10:35:42;;;;;;;13.85;10.65;;;23.10;99.90;;;;;;4980820;28;20027;-76
2023/05/22 10:38:38;;;;;;;13.30;11.02;;;23.10;99.80;;;;;;4946775;28;20078;-76
2023/05/22 10:41:05;;;;;;;14.88;10.18;;;23.20;99.40;;;;;;4947251;28;20632;-76
2023/05/22 10:43:31;;;;;;;18.17;10.75;;;23.20;99.10;;;;;;4964614;28;20031;-76
2023/05/22 10:46:05;;;;;;;13.90;10.60;;;23.30;98.90;;;;;;4972965;23;20428;-75
2023/05/22 10:48:38;;;;;;;17.25;10.70;;;23.30;99.00;;;;;;4974849;28;20030;-76
2023/05/22 10:51:06;;;;;;;14.48;10.57;;;23.30;99.00;;;;;;4970736;28;20034;-73
2023/05/22 10:53:32;;;;;;;15.40;10.82;;;23.30;98.90;;;;;;4975420;28;20127;-73
2023/05/22 10:56:07;;;;;;;12.55;9.88;;;23.40;98.40;;;;;;4967051;28;20034;-72
2023/05/22 10:58:37;;;;;;;14.93;10.93;;;23.40;98.50;;;;;;4955212;29;20055;-73
2023/05/22 11:01:16;;;;;;;12.50;9.18;;;23.50;98.70;;;;;;4953861;28;20024;-74
2023/05/22 11:03:58;;;;;;;14.02;10.35;;;23.50;99.00;;;;;;4971006;28;20031;-74
2023/05/22 11:06:34;;;;;;;11.90;10.23;;;23.50;98.80;;;;;;4954867;28;20102;-74
2023/05/22 11:09:34;;;;;;;15.88;11.20;;;23.60;98.20;;;;;;4952163;28;20071;-76
2023/05/22 11:12:27;;;;;;;13.45;10.32;;;23.60;98.30;;;;;;4957592;28;20034;-75
2023/05/22 11:15:07;;;;;;;12.60;9.82;;;23.60;98.10;;;;;;4954095;28;20062;-74
2023/05/22 11:17:45;;;;;;;12.73;9.07;;;23.60;97.70;;;;;;4952455;28;20465;-76
2023/05/22 11:20:10;;;;;;;13.25;9.93;;;23.60;97.50;;;;;;4955185;28;20035;-75
2023/05/22 11:22:40;;;;;;;11.73;9.40;;;23.70;97.70;;;;;;4981933;28;20031;-77
2023/05/22 11:25:10;;;;;;;13.70;9.88;;;23.80;97.20;;;;;;4972805;28;20031;-78
2023/05/22 11:27:39;;;;;;;13.98;9.57;;;23.80;96.50;;;;;;4957616;29;20019;-77
2023/05/22 11:30:06;;;;;;;14.25;9.23;;;23.80;96.70;;;;;;4976464;28;20020;-77
2023/05/22 11:32:34;;;;;;;9.60;8.60;;;23.90;96.60;;;;;;4962906;28;20067;-78
2023/05/22 11:35:00;;;;;;;12.02;8.95;;;23.90;96.40;;;;;;4961935;28;20078;-77
2023/05/22 11:37:26;;;;;;;10.10;8.80;;;23.90;96.80;;;;;;4960020;28;20031;-78
2023/05/22 11:40:02;;;;;;;12.60;9.35;;;23.90;96.90;;;;;;4967309;28;20034;-77
2023/05/22 11:42:28;;;;;;;12.63;10.05;;;24.00;96.90;;;;;;4964708;28;20110;-78
2023/05/22 11:44:55;;;;;;;12.25;9.10;;;24.00;96.40;;;;;;4964620;28;20453;-77
2023/05/22 11:47:30;;;;;;;9.80;7.43;;;24.10;95.50;;;;;;4961612;28;20095;-77
2023/05/22 11:49:57;;;;;;;10.95;7.78;;;24.10;94.00;;;;;;4960727;28;20051;-77
2023/05/22 11:52:23;;;;;;;11.35;8.27;;;24.10;92.70;;;;;;4959593;29;20094;-77
2023/05/22 11:54:51;;;;;;;9.02;7.60;;;24.20;92.40;;;;;;4958461;28;20031;-75
2023/05/22 11:57:17;;;;;;;13.60;7.80;;;24.20;92.40;;;;;;4971147;28;20118;-77
2023/05/22 11:59:47;;;;;;;9.13;7.60;;;24.30;92.20;;;;;;4953893;28;20059;-77
2023/05/22 12:02:13;;;;;;;9.30;6.95;;;24.30;91.50;;;;;;4967842;28;20035;-77
2023/05/22 12:04:39;;;;;;;11.50;8.20;;;24.30;91.00;;;;;;4959239;28;20027;-77
2023/05/22 12:07:06;;;;;;;10.05;7.38;;;24.40;91.40;;;;;;4957867;28;20148;-77
2023/05/22 12:09:32;;;;;;;12.68;7.90;;;24.40;91.40;;;;;;4960716;28;20028;-77
2023/05/22 12:11:58;;;;;;;9.30;7.63;;;24.40;91.80;;;;;;4974184;28;20036;-77
2023/05/22 12:14:27;;;;;;;13.15;9.07;;;24.50;92.10;;;;;;4977947;28;20516;-77
2023/05/22 12:16:54;;;;;;;15.10;8.82;;;24.60;93.60;;;;;;4963411;28;20030;-78
2023/05/22 12:19:20;;;;;;;12.60;9.40;;;24.60;93.40;;;;;;4979200;28;20151;-77
2023/05/22 12:21:49;;;;;;;11.02;8.85;;;24.60;93.40;;;;;;4961957;28;20030;-77
2023/05/22 12:24:15;;;;;;;10.50;8.38;;;24.60;93.50;;;;;;4958233;28;20417;-76
2023/05/22 12:26:48;;;;;;;13.07;9.48;;;24.70;93.20;;;;;;4954856;28;20030;-77
2023/05/22 12:29:14;;;;;;;13.98;9.43;;;24.70;93.10;;;;;;4972034;28;20023;-75
2023/05/22 12:31:40;;;;;;;12.98;8.98;;;24.80;93.10;;;;;;4964375;28;20082;-76
2023/05/22 12:34:06;;;;;;;10.98;8.57;;;24.80;93.10;;;;;;4962724;28;20175;-76
2023/05/22 12:36:34;;;;;;;15.68;8.77;;;24.90;92.60;;;;;;4955160;28;20023;-75
2023/05/22 12:38:59;;;;;;;12.07;7.72;;;24.90;92.40;;;;;;4966545;28;20046;-75
2023/05/22 12:41:25;;;;;;;14.93;9.10;;;24.90;91.80;;;;;;4952174;28;20027;-75
2023/05/22 12:43:51;;;;;;;10.48;8.00;;;25.00;91.80;;;;;;4952750;28;20046;-75